sensor_id;sensor_type;location;lat;lon;timestamp;temperature;humidity
66128;DHT22;52925;52.436;-1.952;2023-04-12T00:00:46;9.50;85.60
66128;DHT22;52925;52.436;-1.952;2023-04-12T00:02:09;9.40;85.60
66128;DHT22;52925;52.436;-1.952;2023-04-12T00:03:29;9.40;86.00
66128;DHT22;52925;52.436;-1.952;2023-04-12T00:04:52;9.40;85.90
66128;DHT22;52925;52.436;-1.952;2023-04-12T00:06:13;9.40;85.50
66128;DHT22;52925;52.436;-1.952;2023-04-12T00:07:35;9.40;85.80
66128;DHT22;52925;52.436;-1.952;2023-04-12T00:08:57;9.40;85.40
66128;DHT22;52925;52.436;-1.952;2023-04-12T00:10:18;9.40;84.90
66128;DHT22;52925;52.436;-1.952;2023-04-12T00:11:39;9.30;84.60
66128;DHT22;52925;52.436;-1.952;2023-04-12T00:13:00;9.40;85.00
66128;DHT22;52925;52.436;-1.952;2023-04-12T00:14:21;9.40;84.80
66128;DHT22;52925;52.436;-1.952;2023-04-12T00:15:41;9.40;85.40
66128;DHT22;52925;52.436;-1.952;2023-04-12T00:17:02;9.40;85.40
66128;DHT22;52925;52.436;-1.952;2023-04-12T00:18:22;9.30;84.70
66128;DHT22;52925;52.436;-1.952;2023-04-12T00:19:43;9.30;83.90
66128;DHT22;52925;52.436;-1.952;2023-04-12T00:21:03;9.20;85.20
66128;DHT22;52925;52.436;-1.952;2023-04-12T00:22:25;9.10;84.80
66128;DHT22;52925;52.436;-1.952;2023-04-12T00:23:45;9.10;85.20
66128;DHT22;52925;52.436;-1.952;2023-04-12T00:25:08;9.10;84.90
66128;DHT22;52925;52.436;-1.952;2023-04-12T00:26:30;9.20;84.80
66128;DHT22;52925;52.436;-1.952;2023-04-12T00:27:50;9.10;83.50
66128;DHT22;52925;52.436;-1.952;2023-04-12T00:29:10;9.00;83.90
66128;DHT22;52925;52.436;-1.952;2023-04-12T00:30:30;8.90;84.50
66128;DHT22;52925;52.436;-1.952;2023-04-12T00:31:51;8.90;84.50
66128;DHT22;52925;52.436;-1.952;2023-04-12T05:31:22;8.70;84.50
66128;DHT22;52925;52.436;-1.952;2023-04-12T05:32:44;8.70;85.00
66128;DHT22;52925;52.436;-1.952;2023-04-12T05:34:06;8.70;84.90
66128;DHT22;52925;52.436;-1.952;2023-04-12T05:35:33;8.70;84.90
66128;DHT22;52925;52.436;-1.952;2023-04-12T05:36:55;8.60;84.90
66128;DHT22;52925;52.436;-1.952;2023-04-12T05:38:16;8.60;85.00
66128;DHT22;52925;52.436;-1.952;2023-04-12T05:39:40;8.70;84.90
66128;DHT22;52925;52.436;-1.952;2023-04-12T05:41:03;8.70;84.80
66128;DHT22;52925;52.436;-1.952;2023-04-12T05:42:25;8.60;84.80
66128;DHT22;52925;52.436;-1.952;2023-04-12T05:43:47;8.60;84.90
66128;DHT22;52925;52.436;-1.952;2023-04-12T05:45:08;8.60;84.80
66128;DHT22;52925;52.436;-1.952;2023-04-12T05:46:31;8.70;84.80
66128;DHT22;52925;52.436;-1.952;2023-04-12T05:47:53;8.70;84.60
66128;DHT22;52925;52.436;-1.952;2023-04-12T05:49:15;8.70;84.70
66128;DHT22;52925;52.436;-1.952;2023-04-12T05:50:36;8.70;84.70
66128;DHT22;52925;52.436;-1.952;2023-04-12T05:51:57;8.70;84.60
66128;DHT22;52925;52.436;-1.952;2023-04-12T05:53:17;8.70;84.50
66128;DHT22;52925;52.436;-1.952;2023-04-12T05:54:37;8.70;84.60
66128;DHT22;52925;52.436;-1.952;2023-04-12T05:55:59;8.70;84.50
66128;DHT22;52925;52.436;-1.952;2023-04-12T05:57:21;8.70;84.40
66128;DHT22;52925;52.436;-1.952;2023-04-12T05:58:42;8.70;84.40
66128;DHT22;52925;52.436;-1.952;2023-04-12T06:00:03;8.70;84.40
66128;DHT22;52925;52.436;-1.952;2023-04-12T06:01:33;8.70;84.50
66128;DHT22;52925;52.436;-1.952;2023-04-12T06:02:54;8.70;84.40
66128;DHT22;52925;52.436;-1.952;2023-04-12T06:04:15;8.70;84.30
66128;DHT22;52925;52.436;-1.952;2023-04-12T06:05:36;8.70;84.50
66128;DHT22;52925;52.436;-1.952;2023-04-12T06:06:57;8.70;84.50
66128;DHT22;52925;52.436;-1.952;2023-04-12T06:08:19;8.70;84.50
66128;DHT22;52925;52.436;-1.952;2023-04-12T06:09:39;8.70;84.50
66128;DHT22;52925;52.436;-1.952;2023-04-12T06:11:01;8.70;84.40
66128;DHT22;52925;52.436;-1.952;2023-04-12T06:12:22;8.70;84.40
66128;DHT22;52925;52.436;-1.952;2023-04-12T06:13:43;8.70;84.30
66128;DHT22;52925;52.436;-1.952;2023-04-12T06:15:04;8.70;84.40
66128;DHT22;52925;52.436;-1.952;2023-04-12T06:16:26;8.70;84.40
66128;DHT22;52925;52.436;-1.952;2023-04-12T06:17:47;8.70;84.50
66128;DHT22;52925;52.436;-1.952;2023-04-12T06:19:10;8.70;84.50
66128;DHT22;52925;52.436;-1.952;2023-04-12T06:20:31;8.70;84.60
66128;DHT22;52925;52.436;-1.952;2023-04-12T06:21:52;8.70;84.60
66128;DHT22;52925;52.436;-1.952;2023-04-12T06:23:13;8.70;84.70
66128;DHT22;52925;52.436;-1.952;2023-04-12T06:24:34;8.70;84.80
66128;DHT22;52925;52.436;-1.952;2023-04-12T06:25:55;8.60;84.90
66128;DHT22;52925;52.436;-1.952;2023-04-12T06:27:16;8.60;85.00
66128;DHT22;52925;52.436;-1.952;2023-04-12T06:28:36;8.60;85.00
66128;DHT22;52925;52.436;-1.952;2023-04-12T06:29:57;8.60;85.00
66128;DHT22;52925;52.436;-1.952;2023-04-12T06:31:18;8.60;84.90
66128;DHT22;52925;52.436;-1.952;2023-04-12T06:32:40;8.70;84.90
66128;DHT22;52925;52.436;-1.952;2023-04-12T06:34:03;8.60;84.80
66128;DHT22;52925;52.436;-1.952;2023-04-12T06:35:25;8.60;84.90
66128;DHT22;52925;52.436;-1.952;2023-04-12T06:36:45;8.60;84.70
66128;DHT22;52925;52.436;-1.952;2023-04-12T06:38:05;8.60;85.00
66128;DHT22;52925;52.436;-1.952;2023-04-12T06:39:26;8.50;85.00
66128;DHT22;52925;52.436;-1.952;2023-04-12T06:40:47;8.50;84.70
66128;DHT22;52925;52.436;-1.952;2023-04-12T06:42:08;8.50;85.10
66128;DHT22;52925;52.436;-1.952;2023-04-12T06:43:32;8.60;85.10
66128;DHT22;52925;52.436;-1.952;2023-04-12T06:44:53;8.60;84.90
66128;DHT22;52925;52.436;-1.952;2023-04-12T06:46:14;8.60;84.80
66128;DHT22;52925;52.436;-1.952;2023-04-12T06:47:36;8.70;84.70
66128;DHT22;52925;52.436;-1.952;2023-04-12T06:48:57;8.70;84.80
66128;DHT22;52925;52.436;-1.952;2023-04-12T17:46:35;10.50;80.20
66128;DHT22;52925;52.436;-1.952;2023-04-12T17:47:57;10.50;80.40
66128;DHT22;52925;52.436;-1.952;2023-04-12T17:49:17;10.50;80.10
66128;DHT22;52925;52.436;-1.952;2023-04-12T17:50:39;10.50;80.30
66128;DHT22;52925;52.436;-1.952;2023-04-12T17:52:00;10.40;80.10
66128;DHT22;52925;52.436;-1.952;2023-04-12T17:53:21;10.50;80.30
66128;DHT22;52925;52.436;-1.952;2023-04-12T17:54:42;10.40;80.20
66128;DHT22;52925;52.436;-1.952;2023-04-12T17:56:03;10.40;80.20
66128;DHT22;52925;52.436;-1.952;2023-04-12T17:57:24;10.40;80.60
66128;DHT22;52925;52.436;-1.952;2023-04-12T17:58:46;10.30;80.50
66128;DHT22;52925;52.436;-1.952;2023-04-12T18:00:08;10.30;80.30
66128;DHT22;52925;52.436;-1.952;2023-04-12T18:01:34;10.30;80.60
66128;DHT22;52925;52.436;-1.952;2023-04-12T18:02:55;10.30;80.60
66128;DHT22;52925;52.436;-1.952;2023-04-12T18:04:16;10.30;80.50
66128;DHT22;52925;52.436;-1.952;2023-04-12T18:05:37;10.30;80.40
66128;DHT22;52925;52.436;-1.952;2023-04-12T18:06:59;10.30;80.50
66128;DHT22;52925;52.436;-1.952;2023-04-12T18:08:20;10.30;80.70
66128;DHT22;52925;52.436;-1.952;2023-04-12T18:09:42;10.30;81.00
66128;DHT22;52925;52.436;-1.952;2023-04-12T18:11:04;10.20;80.50
66128;DHT22;52925;52.436;-1.952;2023-04-12T18:12:26;10.20;81.00
66128;DHT22;52925;52.436;-1.952;2023-04-12T18:13:47;10.20;80.90
66128;DHT22;52925;52.436;-1.952;2023-04-12T18:15:08;10.20;81.50
66128;DHT22;52925;52.436;-1.952;2023-04-12T18:16:29;10.20;81.00
66128;DHT22;52925;52.436;-1.952;2023-04-12T18:17:52;10.20;81.20
66128;DHT22;52925;52.436;-1.952;2023-04-12T18:19:15;10.20;81.20
66128;DHT22;52925;52.436;-1.952;2023-04-12T18:20:37;10.20;81.20
66128;DHT22;52925;52.436;-1.952;2023-04-12T18:21:58;10.10;81.10
66128;DHT22;52925;52.436;-1.952;2023-04-12T18:23:20;10.10;81.00
66128;DHT22;52925;52.436;-1.952;2023-04-12T18:24:41;10.00;81.40
66128;DHT22;52925;52.436;-1.952;2023-04-12T18:26:04;10.00;81.40
66128;DHT22;52925;52.436;-1.952;2023-04-12T18:27:25;10.00;81.60
66128;DHT22;52925;52.436;-1.952;2023-04-12T18:28:46;10.00;81.50
66128;DHT22;52925;52.436;-1.952;2023-04-12T18:30:07;9.90;81.50
66128;DHT22;52925;52.436;-1.952;2023-04-12T18:31:27;9.90;81.50
66128;DHT22;52925;52.436;-1.952;2023-04-12T18:32:49;9.90;81.60
66128;DHT22;52925;52.436;-1.952;2023-04-12T18:34:11;9.90;81.60
66128;DHT22;52925;52.436;-1.952;2023-04-12T18:35:32;9.90;82.70
66128;DHT22;52925;52.436;-1.952;2023-04-12T18:36:53;9.90;82.20
66128;DHT22;52925;52.436;-1.952;2023-04-12T18:38:14;9.90;82.10
66128;DHT22;52925;52.436;-1.952;2023-04-12T18:39:35;9.90;82.40
66128;DHT22;52925;52.436;-1.952;2023-04-12T18:40:56;9.90;82.30
66128;DHT22;52925;52.436;-1.952;2023-04-12T18:42:16;9.90;82.20
66128;DHT22;52925;52.436;-1.952;2023-04-12T18:43:38;9.90;82.20
66128;DHT22;52925;52.436;-1.952;2023-04-12T18:44:59;9.80;82.70
66128;DHT22;52925;52.436;-1.952;2023-04-12T18:46:20;9.80;82.50
66128;DHT22;52925;52.436;-1.952;2023-04-12T18:47:41;9.80;82.70
66128;DHT22;52925;52.436;-1.952;2023-04-12T18:49:02;9.80;83.00
66128;DHT22;52925;52.436;-1.952;2023-04-12T18:50:25;9.80;83.00
66128;DHT22;52925;52.436;-1.952;2023-04-12T18:51:47;9.80;83.10
66128;DHT22;52925;52.436;-1.952;2023-04-12T18:53:08;9.70;83.20
66128;DHT22;52925;52.436;-1.952;2023-04-12T18:54:30;9.70;83.50
66128;DHT22;52925;52.436;-1.952;2023-04-12T18:55:50;9.70;83.40
66128;DHT22;52925;52.436;-1.952;2023-04-12T18:57:14;9.60;83.50
66128;DHT22;52925;52.436;-1.952;2023-04-12T18:58:34;9.60;83.90
66128;DHT22;52925;52.436;-1.952;2023-04-12T18:59:55;9.70;84.00
66128;DHT22;52925;52.436;-1.952;2023-04-12T19:01:16;9.70;83.90
66128;DHT22;52925;52.436;-1.952;2023-04-12T19:02:37;9.70;83.90
66128;DHT22;52925;52.436;-1.952;2023-04-12T19:03:58;9.70;83.80
66128;DHT22;52925;52.436;-1.952;2023-04-12T19:05:22;9.70;83.90
66128;DHT22;52925;52.436;-1.952;2023-04-12T19:06:45;9.80;83.80
66128;DHT22;52925;52.436;-1.952;2023-04-12T19:08:06;9.70;83.80
66128;DHT22;52925;52.436;-1.952;2023-04-12T19:09:28;9.70;83.80
66128;DHT22;52925;52.436;-1.952;2023-04-12T19:10:49;9.70;83.90
66128;DHT22;52925;52.436;-1.952;2023-04-12T19:12:11;9.80;83.90
66128;DHT22;52925;52.436;-1.952;2023-04-12T19:13:32;9.80;84.00
66128;DHT22;52925;52.436;-1.952;2023-04-12T19:14:53;9.70;84.20
66128;DHT22;52925;52.436;-1.952;2023-04-12T19:16:14;9.70;84.40
66128;DHT22;52925;52.436;-1.952;2023-04-12T19:17:35;9.60;84.50
66128;DHT22;52925;52.436;-1.952;2023-04-12T19:18:57;9.60;84.70
66128;DHT22;52925;52.436;-1.952;2023-04-12T19:20:19;9.60;85.10
66128;DHT22;52925;52.436;-1.952;2023-04-12T19:21:40;9.60;85.20
66128;DHT22;52925;52.436;-1.952;2023-04-12T19:23:02;9.60;85.10
66128;DHT22;52925;52.436;-1.952;2023-04-12T19:24:23;9.70;85.00
66128;DHT22;52925;52.436;-1.952;2023-04-12T19:25:45;9.70;85.50
66128;DHT22;52925;52.436;-1.952;2023-04-12T19:27:06;9.80;84.70
66128;DHT22;52925;52.436;-1.952;2023-04-12T19:28:28;9.70;84.60
66128;DHT22;52925;52.436;-1.952;2023-04-12T19:29:49;9.80;84.70
66128;DHT22;52925;52.436;-1.952;2023-04-12T19:31:11;9.80;84.50
66128;DHT22;52925;52.436;-1.952;2023-04-12T19:32:33;9.80;84.60
66128;DHT22;52925;52.436;-1.952;2023-04-12T19:33:54;9.80;84.50
66128;DHT22;52925;52.436;-1.952;2023-04-12T19:35:15;9.80;84.50
66128;DHT22;52925;52.436;-1.952;2023-04-12T19:36:36;9.80;84.70
66128;DHT22;52925;52.436;-1.952;2023-04-12T19:37:56;9.80;84.80
66128;DHT22;52925;52.436;-1.952;2023-04-12T19:39:18;9.70;84.90
66128;DHT22;52925;52.436;-1.952;2023-04-12T19:40:41;9.80;84.90
66128;DHT22;52925;52.436;-1.952;2023-04-12T19:42:03;9.70;85.10
66128;DHT22;52925;52.436;-1.952;2023-04-12T19:43:24;9.60;85.60
66128;DHT22;52925;52.436;-1.952;2023-04-12T19:44:45;9.50;85.20
66128;DHT22;52925;52.436;-1.952;2023-04-12T19:46:06;9.40;85.80
66128;DHT22;52925;52.436;-1.952;2023-04-12T19:47:27;9.30;85.70
66128;DHT22;52925;52.436;-1.952;2023-04-12T19:48:47;9.20;86.00
66128;DHT22;52925;52.436;-1.952;2023-04-12T19:50:09;9.20;86.40
66128;DHT22;52925;52.436;-1.952;2023-04-12T19:51:28;9.20;86.10
66128;DHT22;52925;52.436;-1.952;2023-04-12T19:52:51;9.10;85.90
66128;DHT22;52925;52.436;-1.952;2023-04-12T19:54:12;9.10;86.40
66128;DHT22;52925;52.436;-1.952;2023-04-12T19:55:34;9.20;86.30
66128;DHT22;52925;52.436;-1.952;2023-04-12T19:56:55;9.20;85.90
66128;DHT22;52925;52.436;-1.952;2023-04-12T19:58:16;9.20;86.30
66128;DHT22;52925;52.436;-1.952;2023-04-12T19:59:37;9.20;86.20
66128;DHT22;52925;52.436;-1.952;2023-04-12T20:01:00;9.20;86.10
66128;DHT22;52925;52.436;-1.952;2023-04-12T20:02:21;9.20;86.00
66128;DHT22;52925;52.436;-1.952;2023-04-12T20:03:42;9.20;85.90
66128;DHT22;52925;52.436;-1.952;2023-04-12T20:05:04;9.10;85.70
66128;DHT22;52925;52.436;-1.952;2023-04-12T20:06:26;9.10;85.60
66128;DHT22;52925;52.436;-1.952;2023-04-12T20:07:47;9.10;86.10
66128;DHT22;52925;52.436;-1.952;2023-04-12T20:09:11;9.10;85.80
66128;DHT22;52925;52.436;-1.952;2023-04-12T20:10:34;9.10;85.70
66128;DHT22;52925;52.436;-1.952;2023-04-12T20:11:55;9.10;85.70
66128;DHT22;52925;52.436;-1.952;2023-04-12T20:13:16;9.20;85.70
66128;DHT22;52925;52.436;-1.952;2023-04-12T20:14:37;9.10;85.90
66128;DHT22;52925;52.436;-1.952;2023-04-12T20:15:58;9.10;85.70
66128;DHT22;52925;52.436;-1.952;2023-04-12T20:17:20;9.10;85.80
66128;DHT22;52925;52.436;-1.952;2023-04-12T20:18:40;9.20;85.60
66128;DHT22;52925;52.436;-1.952;2023-04-12T20:20:01;9.20;85.50
66128;DHT22;52925;52.436;-1.952;2023-04-12T20:21:25;9.30;85.40
66128;DHT22;52925;52.436;-1.952;2023-04-12T20:22:50;9.20;85.10
66128;DHT22;52925;52.436;-1.952;2023-04-12T20:24:11;9.30;85.20
66128;DHT22;52925;52.436;-1.952;2023-04-12T20:25:32;9.30;84.70
66128;DHT22;52925;52.436;-1.952;2023-04-12T20:26:57;9.30;84.90
66128;DHT22;52925;52.436;-1.952;2023-04-12T20:28:19;9.20;84.40
66128;DHT22;52925;52.436;-1.952;2023-04-12T20:29:39;9.10;84.80
66128;DHT22;52925;52.436;-1.952;2023-04-12T20:31:01;9.00;85.80
66128;DHT22;52925;52.436;-1.952;2023-04-12T20:32:22;9.00;84.90
66128;DHT22;52925;52.436;-1.952;2023-04-12T20:33:44;9.00;85.50
66128;DHT22;52925;52.436;-1.952;2023-04-12T20:35:06;9.00;85.50
66128;DHT22;52925;52.436;-1.952;2023-04-12T20:36:27;9.10;85.60
66128;DHT22;52925;52.436;-1.952;2023-04-12T20:37:48;9.10;85.40
66128;DHT22;52925;52.436;-1.952;2023-04-12T20:39:10;9.20;85.30
66128;DHT22;52925;52.436;-1.952;2023-04-12T20:40:30;9.20;85.00
66128;DHT22;52925;52.436;-1.952;2023-04-12T20:41:51;9.30;85.00
66128;DHT22;52925;52.436;-1.952;2023-04-12T20:43:14;9.30;84.60
66128;DHT22;52925;52.436;-1.952;2023-04-12T20:44:36;9.30;84.90
66128;DHT22;52925;52.436;-1.952;2023-04-12T20:45:57;9.30;84.70
66128;DHT22;52925;52.436;-1.952;2023-04-12T20:47:19;9.30;84.70
66128;DHT22;52925;52.436;-1.952;2023-04-12T20:48:41;9.40;84.60
66128;DHT22;52925;52.436;-1.952;2023-04-12T20:50:02;9.40;84.60
66128;DHT22;52925;52.436;-1.952;2023-04-12T20:51:23;9.40;84.50
66128;DHT22;52925;52.436;-1.952;2023-04-12T20:52:44;9.40;84.50
66128;DHT22;52925;52.436;-1.952;2023-04-12T20:54:06;9.40;84.60
66128;DHT22;52925;52.436;-1.952;2023-04-12T20:55:27;9.40;84.40
66128;DHT22;52925;52.436;-1.952;2023-04-12T20:56:53;9.40;84.50
66128;DHT22;52925;52.436;-1.952;2023-04-12T20:58:15;9.40;84.30
66128;DHT22;52925;52.436;-1.952;2023-04-12T20:59:36;9.40;84.40
66128;DHT22;52925;52.436;-1.952;2023-04-12T21:00:57;9.40;84.40
66128;DHT22;52925;52.436;-1.952;2023-04-12T21:02:19;9.40;84.40
66128;DHT22;52925;52.436;-1.952;2023-04-12T21:03:41;9.40;84.40
66128;DHT22;52925;52.436;-1.952;2023-04-12T21:05:02;9.40;84.40
66128;DHT22;52925;52.436;-1.952;2023-04-12T21:06:23;9.30;84.40
66128;DHT22;52925;52.436;-1.952;2023-04-12T21:07:46;9.40;84.50
66128;DHT22;52925;52.436;-1.952;2023-04-12T21:09:07;9.40;84.60
66128;DHT22;52925;52.436;-1.952;2023-04-12T21:10:28;9.40;84.40
66128;DHT22;52925;52.436;-1.952;2023-04-12T21:11:49;9.30;84.50
66128;DHT22;52925;52.436;-1.952;2023-04-12T21:13:09;9.30;84.50
66128;DHT22;52925;52.436;-1.952;2023-04-12T21:14:32;9.20;84.60
66128;DHT22;52925;52.436;-1.952;2023-04-12T21:15:54;9.20;84.80
66128;DHT22;52925;52.436;-1.952;2023-04-12T21:17:15;9.30;84.80
66128;DHT22;52925;52.436;-1.952;2023-04-12T21:18:40;9.30;84.30
66128;DHT22;52925;52.436;-1.952;2023-04-12T21:20:01;9.30;84.70
66128;DHT22;52925;52.436;-1.952;2023-04-12T21:21:31;9.30;84.50
66128;DHT22;52925;52.436;-1.952;2023-04-12T21:22:52;9.20;84.70
66128;DHT22;52925;52.436;-1.952;2023-04-12T21:24:13;9.20;84.90
66128;DHT22;52925;52.436;-1.952;2023-04-12T21:25:34;9.20;84.70
66128;DHT22;52925;52.436;-1.952;2023-04-12T21:26:55;9.30;84.60
66128;DHT22;52925;52.436;-1.952;2023-04-12T21:28:17;9.20;84.60
66128;DHT22;52925;52.436;-1.952;2023-04-12T21:29:40;9.30;84.70
66128;DHT22;52925;52.436;-1.952;2023-04-12T21:31:01;9.30;84.70
66128;DHT22;52925;52.436;-1.952;2023-04-12T21:32:22;9.30;84.70
66128;DHT22;52925;52.436;-1.952;2023-04-12T21:33:43;9.20;84.20
66128;DHT22;52925;52.436;-1.952;2023-04-12T21:35:05;9.20;84.70
66128;DHT22;52925;52.436;-1.952;2023-04-12T21:36:27;9.20;84.80
66128;DHT22;52925;52.436;-1.952;2023-04-12T21:37:49;9.20;84.40
66128;DHT22;52925;52.436;-1.952;2023-04-12T21:39:11;9.10;84.70
66128;DHT22;52925;52.436;-1.952;2023-04-12T21:40:31;9.00;84.90
66128;DHT22;52925;52.436;-1.952;2023-04-12T21:41:52;8.90;85.00
66128;DHT22;52925;52.436;-1.952;2023-04-12T21:43:14;9.00;85.50
66128;DHT22;52925;52.436;-1.952;2023-04-12T21:44:34;9.00;85.30
66128;DHT22;52925;52.436;-1.952;2023-04-12T21:45:58;9.00;84.90
66128;DHT22;52925;52.436;-1.952;2023-04-12T21:47:19;9.00;85.30
66128;DHT22;52925;52.436;-1.952;2023-04-12T21:48:39;9.00;85.10
66128;DHT22;52925;52.436;-1.952;2023-04-12T21:50:01;8.90;85.30
66128;DHT22;52925;52.436;-1.952;2023-04-12T21:51:22;9.00;85.20
66128;DHT22;52925;52.436;-1.952;2023-04-12T21:52:44;8.90;85.20
66128;DHT22;52925;52.436;-1.952;2023-04-12T21:54:05;8.90;85.30
66128;DHT22;52925;52.436;-1.952;2023-04-12T21:55:26;8.90;85.60
66128;DHT22;52925;52.436;-1.952;2023-04-12T21:56:47;8.80;85.60
66128;DHT22;52925;52.436;-1.952;2023-04-12T21:58:08;8.80;85.50
66128;DHT22;52925;52.436;-1.952;2023-04-12T21:59:28;8.90;86.00
66128;DHT22;52925;52.436;-1.952;2023-04-12T22:00:49;8.90;85.70
66128;DHT22;52925;52.436;-1.952;2023-04-12T22:02:12;8.80;85.60
66128;DHT22;52925;52.436;-1.952;2023-04-12T22:03:34;8.80;85.80
66128;DHT22;52925;52.436;-1.952;2023-04-12T22:04:53;8.70;85.30
66128;DHT22;52925;52.436;-1.952;2023-04-12T22:06:14;8.70;85.80
66128;DHT22;52925;52.436;-1.952;2023-04-12T22:07:35;8.70;86.00
66128;DHT22;52925;52.436;-1.952;2023-04-12T22:08:59;8.70;86.00
66128;DHT22;52925;52.436;-1.952;2023-04-12T22:10:22;8.80;86.20
66128;DHT22;52925;52.436;-1.952;2023-04-12T22:11:43;8.90;85.80
66128;DHT22;52925;52.436;-1.952;2023-04-12T22:13:03;8.80;86.00
66128;DHT22;52925;52.436;-1.952;2023-04-12T22:14:28;8.70;86.30
66128;DHT22;52925;52.436;-1.952;2023-04-12T22:15:50;8.70;86.40
66128;DHT22;52925;52.436;-1.952;2023-04-12T22:17:12;8.70;86.60
66128;DHT22;52925;52.436;-1.952;2023-04-12T22:18:34;8.70;86.70
66128;DHT22;52925;52.436;-1.952;2023-04-12T22:19:55;8.70;86.70
66128;DHT22;52925;52.436;-1.952;2023-04-12T22:21:16;8.70;86.80
66128;DHT22;52925;52.436;-1.952;2023-04-12T22:22:36;8.70;86.90
66128;DHT22;52925;52.436;-1.952;2023-04-12T22:23:57;8.80;86.80
66128;DHT22;52925;52.436;-1.952;2023-04-12T22:25:17;8.70;86.80
66128;DHT22;52925;52.436;-1.952;2023-04-12T22:26:39;8.70;87.00
66128;DHT22;52925;52.436;-1.952;2023-04-12T22:27:59;8.70;87.30
66128;DHT22;52925;52.436;-1.952;2023-04-12T22:29:20;8.70;87.20
66128;DHT22;52925;52.436;-1.952;2023-04-12T22:30:41;8.70;87.30
66128;DHT22;52925;52.436;-1.952;2023-04-12T22:32:02;8.70;87.30
66128;DHT22;52925;52.436;-1.952;2023-04-12T22:33:24;8.70;87.30
66128;DHT22;52925;52.436;-1.952;2023-04-12T22:34:43;8.70;87.40
66128;DHT22;52925;52.436;-1.952;2023-04-12T22:36:05;8.60;87.60
66128;DHT22;52925;52.436;-1.952;2023-04-12T22:37:25;8.70;87.40
66128;DHT22;52925;52.436;-1.952;2023-04-12T22:38:48;8.80;87.30
66128;DHT22;52925;52.436;-1.952;2023-04-12T22:40:10;8.80;87.10
66128;DHT22;52925;52.436;-1.952;2023-04-12T22:41:31;8.80;87.30
66128;DHT22;52925;52.436;-1.952;2023-04-12T22:42:52;8.80;87.90
66128;DHT22;52925;52.436;-1.952;2023-04-12T22:44:15;8.70;87.40
66128;DHT22;52925;52.436;-1.952;2023-04-12T22:45:35;8.80;87.40
66128;DHT22;52925;52.436;-1.952;2023-04-12T22:46:56;8.70;87.30
66128;DHT22;52925;52.436;-1.952;2023-04-12T22:48:17;8.70;87.60
66128;DHT22;52925;52.436;-1.952;2023-04-12T22:49:45;8.70;87.70
66128;DHT22;52925;52.436;-1.952;2023-04-12T22:51:08;8.70;87.80
66128;DHT22;52925;52.436;-1.952;2023-04-12T22:52:28;8.70;87.80
66128;DHT22;52925;52.436;-1.952;2023-04-12T22:53:50;8.70;87.90
66128;DHT22;52925;52.436;-1.952;2023-04-12T22:55:11;8.70;87.70
66128;DHT22;52925;52.436;-1.952;2023-04-12T22:56:32;8.70;87.90
66128;DHT22;52925;52.436;-1.952;2023-04-12T22:57:59;8.70;87.80
66128;DHT22;52925;52.436;-1.952;2023-04-12T22:59:24;8.70;87.70
66128;DHT22;52925;52.436;-1.952;2023-04-12T23:00:44;8.70;87.70
66128;DHT22;52925;52.436;-1.952;2023-04-12T23:02:07;8.80;87.70
66128;DHT22;52925;52.436;-1.952;2023-04-12T23:03:28;8.70;87.40
66128;DHT22;52925;52.436;-1.952;2023-04-12T23:04:50;8.70;87.50
66128;DHT22;52925;52.436;-1.952;2023-04-12T23:06:10;8.70;87.80
66128;DHT22;52925;52.436;-1.952;2023-04-12T23:07:32;8.70;87.50
66128;DHT22;52925;52.436;-1.952;2023-04-12T23:08:53;8.60;87.60
66128;DHT22;52925;52.436;-1.952;2023-04-12T23:10:15;8.70;87.70
66128;DHT22;52925;52.436;-1.952;2023-04-12T23:11:38;8.60;87.80
66128;DHT22;52925;52.436;-1.952;2023-04-12T23:13:00;8.60;87.70
66128;DHT22;52925;52.436;-1.952;2023-04-12T23:14:21;8.60;87.80
66128;DHT22;52925;52.436;-1.952;2023-04-12T23:15:42;8.70;87.70
66128;DHT22;52925;52.436;-1.952;2023-04-12T23:17:03;8.60;87.80
66128;DHT22;52925;52.436;-1.952;2023-04-12T23:18:23;8.70;87.70
66128;DHT22;52925;52.436;-1.952;2023-04-12T23:19:44;8.70;87.80
66128;DHT22;52925;52.436;-1.952;2023-04-12T23:21:05;8.70;87.70
66128;DHT22;52925;52.436;-1.952;2023-04-12T23:22:29;8.70;87.40
66128;DHT22;52925;52.436;-1.952;2023-04-12T23:23:51;8.60;87.60
66128;DHT22;52925;52.436;-1.952;2023-04-12T23:25:14;8.60;87.70
66128;DHT22;52925;52.436;-1.952;2023-04-12T23:26:34;8.70;87.70
66128;DHT22;52925;52.436;-1.952;2023-04-12T23:27:55;8.60;87.50
66128;DHT22;52925;52.436;-1.952;2023-04-12T23:29:15;8.50;87.60
66128;DHT22;52925;52.436;-1.952;2023-04-12T23:30:37;8.60;87.80
66128;DHT22;52925;52.436;-1.952;2023-04-12T23:31:57;8.60;87.60
66128;DHT22;52925;52.436;-1.952;2023-04-12T23:33:19;8.60;87.70
66128;DHT22;52925;52.436;-1.952;2023-04-12T23:34:39;8.50;87.60
66128;DHT22;52925;52.436;-1.952;2023-04-12T23:36:00;8.50;87.50
66128;DHT22;52925;52.436;-1.952;2023-04-12T23:37:22;8.50;87.50
66128;DHT22;52925;52.436;-1.952;2023-04-12T23:38:43;8.50;87.60
66128;DHT22;52925;52.436;-1.952;2023-04-12T23:40:05;8.50;87.80
66128;DHT22;52925;52.436;-1.952;2023-04-12T23:41:30;8.50;87.60
66128;DHT22;52925;52.436;-1.952;2023-04-12T23:42:52;8.50;87.60
66128;DHT22;52925;52.436;-1.952;2023-04-12T23:44:12;8.50;87.60
66128;DHT22;52925;52.436;-1.952;2023-04-12T23:45:33;8.50;87.50
66128;DHT22;52925;52.436;-1.952;2023-04-12T23:46:54;8.50;87.60
66128;DHT22;52925;52.436;-1.952;2023-04-12T23:48:15;8.50;87.50
66128;DHT22;52925;52.436;-1.952;2023-04-12T23:49:36;8.50;87.40
66128;DHT22;52925;52.436;-1.952;2023-04-12T23:50:56;8.60;87.40
66128;DHT22;52925;52.436;-1.952;2023-04-12T23:52:17;8.50;87.40
66128;DHT22;52925;52.436;-1.952;2023-04-12T23:53:38;8.50;87.50
66128;DHT22;52925;52.436;-1.952;2023-04-12T23:54:59;8.50;87.40
66128;DHT22;52925;52.436;-1.952;2023-04-12T23:56:21;8.50;87.50
66128;DHT22;52925;52.436;-1.952;2023-04-12T23:57:42;8.50;87.60
66128;DHT22;52925;52.436;-1.952;2023-04-12T23:59:02;8.50;87.70
